Whittington, United Kingdom
Current Conditions -  °F | °C
As of 12:20 PM on Sunday 25 Jan 2015 (Local Time) from EGBB Reporting Station
Scattered Clouds Scattered Clouds  
Wind Chill: 41°   Ceiling: Unl
Heat Index: 46°   Visibility: 6mi
Dew Point: 37°   Wind: 10mph
Humidity: 71%   Direction: 240°WSW
Pressure: 30.36"   Gusts: NA
Location:  52.68°N, 1.77°W
Report Text: EGBB 251220Z 24009KT 200V280 9999 SCT023 08/03 Q1028
Loading
Personal Weather Stations






























Interactive Weather Map New forecast layout! Learn more

10-Day Weather Forecast

Advertisements
Track Severe Weather on mobile